Time;durP1;ratioP1;P1;durP2;ratioP2;P2;SDS_P1;SDS_P2;PMS_P1;PMS_P2;Temp;Humidity;BMP_temperature;BMP_pressure;BME280_temperature;BME280_humidity;BME280_pressure;Samples;Min_cycle;Max_cycle;Signal;HPM_P1;HPM_P2
2022/08/26 00:01:20;;;;;;;3.20;0.70;;;22.10;99.90;;;;;;5058751;28;20033;-58
2022/08/26 00:03:46;;;;;;;5.20;0.93;;;22.00;99.90;;;;;;5058685;28;20025;-58
2022/08/26 00:06:12;;;;;;;2.80;1.15;;;22.00;99.90;;;;;;5058680;28;20025;-57
2022/08/26 00:08:39;;;;;;;3.58;0.88;;;22.00;99.90;;;;;;5058404;28;20324;-58
2022/08/26 00:11:05;;;;;;;5.18;0.85;;;22.10;99.90;;;;;;5059168;28;20072;-58
2022/08/26 00:13:32;;;;;;;4.05;0.90;;;22.10;99.90;;;;;;5058369;28;20116;-58
2022/08/26 00:15:59;;;;;;;5.07;0.90;;;22.10;99.90;;;;;;5059008;28;20086;-58
2022/08/26 00:18:24;;;;;;;2.13;0.90;;;22.00;99.90;;;;;;5058042;28;20332;-59
2022/08/26 00:20:50;;;;;;;4.93;1.00;;;22.00;99.90;;;;;;5057468;28;20037;-59
2022/08/26 00:23:17;;;;;;;5.05;0.80;;;22.10;99.90;;;;;;5041334;28;20312;-58
2022/08/26 00:25:43;;;;;;;4.25;0.88;;;22.10;99.90;;;;;;5058657;28;20281;-58
2022/08/26 00:28:09;;;;;;;6.00;0.77;;;22.20;99.90;;;;;;5058472;28;20044;-58
2022/08/26 00:30:35;;;;;;;5.40;0.70;;;22.10;99.90;;;;;;5058109;28;20028;-58
2022/08/26 00:33:04;;;;;;;4.10;0.82;;;22.00;99.90;;;;;;5040669;28;20044;-58
2022/08/26 00:35:30;;;;;;;5.55;1.08;;;22.10;99.90;;;;;;5057994;28;20305;-58
2022/08/26 00:37:56;;;;;;;2.67;0.70;;;22.10;99.90;;;;;;5057974;28;20045;-59
2022/08/26 00:40:30;;;;;;;5.43;0.80;;;22.10;99.90;;;;;;5057870;28;20408;-59
2022/08/26 00:42:56;;;;;;;5.05;0.70;;;22.10;99.90;;;;;;5058289;28;20293;-58
2022/08/26 00:45:22;;;;;;;2.75;0.60;;;22.00;99.90;;;;;;5057859;28;20091;-58
2022/08/26 00:47:54;;;;;;;5.25;0.88;;;22.10;99.90;;;;;;5057773;28;20124;-58
2022/08/26 00:50:28;;;;;;;;;;;22.00;99.90;;;;;;5058265;28;20033;-58
2022/08/26 00:52:56;;;;;;;5.30;0.85;;;22.00;99.90;;;;;;5057748;28;19919;-58
2022/08/26 00:55:40;;;;;;;7.43;0.90;;;22.00;99.90;;;;;;5057655;28;20040;-59
2022/08/26 00:58:07;;;;;;;5.80;0.95;;;22.00;99.90;;;;;;5058008;28;20040;-59
2022/08/26 01:00:33;;;;;;;3.92;0.80;;;22.00;99.90;;;;;;5040064;28;20052;-59
2022/08/26 01:03:02;;;;;;;3.03;0.90;;;22.00;99.90;;;;;;5057543;28;20029;-59
2022/08/26 01:05:28;;;;;;;6.53;1.20;;;22.00;99.90;;;;;;5057551;28;20094;-59
2022/08/26 01:07:54;;;;;;;4.05;1.15;;;22.00;99.90;;;;;;5057964;28;20044;-58
2022/08/26 01:10:26;;;;;;;5.05;0.90;;;22.00;99.90;;;;;;5057424;28;20056;-57
2022/08/26 01:13:04;;;;;;;6.55;1.20;;;22.10;99.90;;;;;;5057633;28;20045;-57
2022/08/26 01:15:36;;;;;;;5.13;1.00;;;22.10;99.90;;;;;;5057384;28;20047;-59
2022/08/26 01:18:04;;;;;;;3.70;1.10;;;22.00;99.90;;;;;;5057410;28;20307;-59
2022/08/26 01:20:55;;;;;;;9.20;1.50;;;22.00;99.90;;;;;;5057235;28;20037;-59
2022/08/26 01:23:21;;;;;;;5.47;1.30;;;22.00;99.90;;;;;;5057672;28;20381;-58
2022/08/26 01:25:53;;;;;;;6.30;1.23;;;21.90;99.90;;;;;;5057096;28;20020;-57
2022/08/26 01:28:24;;;;;;;10.48;1.63;;;21.90;99.90;;;;;;5056195;28;20025;-58
2022/08/26 01:30:52;;;;;;;4.57;0.95;;;21.90;99.90;;;;;;5039912;28;20112;-58
2022/08/26 01:33:25;;;;;;;5.97;1.35;;;21.80;99.90;;;;;;5057057;28;20020;-58
2022/08/26 01:35:51;;;;;;;7.13;1.27;;;21.70;99.90;;;;;;5057017;28;20032;-57
2022/08/26 01:38:17;;;;;;;5.32;1.20;;;21.70;99.90;;;;;;5056901;28;20021;-57
2022/08/26 01:40:44;;;;;;;4.25;1.10;;;21.80;99.90;;;;;;5056927;28;20037;-57
2022/08/26 01:43:16;;;;;;;6.28;1.33;;;21.70;99.90;;;;;;5056776;28;20139;-59
2022/08/26 01:45:44;;;;;;;2.85;1.20;;;21.60;99.90;;;;;;5040120;28;20044;-57
2022/08/26 01:48:15;;;;;;;5.32;1.30;;;21.60;99.90;;;;;;5056852;28;20021;-58
2022/08/26 01:50:43;;;;;;;7.15;1.40;;;21.50;99.90;;;;;;5056814;28;20033;-57
2022/08/26 01:53:11;;;;;;;4.68;1.60;;;21.40;99.90;;;;;;5056694;28;20074;-57
2022/08/26 01:55:42;;;;;;;7.43;1.50;;;21.50;99.90;;;;;;5056727;28;20052;-58
2022/08/26 01:58:16;;;;;;;5.40;1.88;;;21.40;99.90;;;;;;5039858;28;20037;-58
2022/08/26 02:00:42;;;;;;;3.97;1.88;;;21.40;99.90;;;;;;5039188;28;20297;-59
2022/08/26 02:03:17;;;;;;;4.25;1.95;;;21.30;99.90;;;;;;5056502;28;20040;-58
2022/08/26 02:05:51;;;;;;;5.90;1.73;;;21.30;99.90;;;;;;5056812;28;20408;-58
2022/08/26 02:08:19;;;;;;;4.38;2.00;;;21.40;99.90;;;;;;5039126;28;20033;-58
2022/08/26 02:10:46;;;;;;;2.72;1.55;;;21.40;99.90;;;;;;5057071;28;20108;-58
2022/08/26 02:13:12;;;;;;;5.55;2.05;;;21.30;99.90;;;;;;5056459;28;20045;-57
2022/08/26 02:15:41;;;;;;;6.07;2.33;;;21.30;99.90;;;;;;5056390;28;20040;-59
2022/08/26 02:18:09;;;;;;;4.97;1.88;;;21.40;99.90;;;;;;5056278;28;20055;-59
2022/08/26 02:20:35;;;;;;;6.00;2.45;;;21.40;99.90;;;;;;5056455;28;20045;-59
2022/08/26 02:23:04;;;;;;;5.70;2.65;;;21.40;99.90;;;;;;5022897;28;20040;-59
2022/08/26 02:25:43;;;;;;;5.22;2.42;;;21.40;99.90;;;;;;5056430;28;20420;-59
2022/08/26 02:28:11;;;;;;;5.47;2.42;;;21.40;99.90;;;;;;5056902;28;20032;-59
2022/08/26 02:30:39;;;;;;;8.07;2.55;;;21.30;99.90;;;;;;5056305;28;20080;-59
2022/08/26 02:33:05;;;;;;;9.57;2.70;;;21.40;99.90;;;;;;5056307;28;20059;-60
2022/08/26 02:35:33;;;;;;;3.60;1.95;;;21.40;99.90;;;;;;5056319;28;20061;-59
2022/08/26 02:37:59;;;;;;;5.15;2.00;;;21.40;99.90;;;;;;5056257;28;20066;-58
2022/08/26 02:40:32;;;;;;;4.75;2.00;;;21.30;99.90;;;;;;5056232;28;20112;-58
2022/08/26 02:42:58;;;;;;;6.22;1.95;;;21.30;99.90;;;;;;5056816;28;20036;-58
2022/08/26 02:45:27;;;;;;;7.85;1.80;;;21.30;99.90;;;;;;5055420;28;20313;-58
2022/08/26 02:47:55;;;;;;;6.93;1.60;;;21.20;99.90;;;;;;5056261;28;20033;-61
2022/08/26 02:50:21;;;;;;;4.25;1.30;;;21.20;99.90;;;;;;5038911;28;20304;-58
2022/08/26 02:52:48;;;;;;;6.03;1.70;;;21.20;99.90;;;;;;5056339;28;20044;-59
2022/08/26 02:55:14;;;;;;;3.60;1.67;;;21.30;99.90;;;;;;5056020;28;20040;-57
2022/08/26 02:57:40;;;;;;;4.93;1.70;;;21.30;99.90;;;;;;5056344;28;20355;-58
2022/08/26 03:00:08;;;;;;;4.80;1.85;;;21.30;99.90;;;;;;5055959;28;20132;-58
2022/08/26 03:02:33;;;;;;;11.20;2.33;;;21.10;99.90;;;;;;5056354;28;20029;-58
2022/08/26 03:04:59;;;;;;;6.68;1.80;;;21.10;99.90;;;;;;5038794;28;20123;-57
2022/08/26 03:07:25;;;;;;;7.10;1.95;;;21.00;99.90;;;;;;5057388;28;20325;-58
2022/08/26 03:09:51;;;;;;;5.28;1.98;;;21.20;99.90;;;;;;5059576;28;20088;-58
2022/08/26 03:12:19;;;;;;;4.75;1.65;;;21.10;99.90;;;;;;5060207;28;20090;-58
2022/08/26 03:14:46;;;;;;;4.07;1.85;;;21.00;99.90;;;;;;5042490;28;20039;-58
2022/08/26 03:17:12;;;;;;;5.50;1.70;;;20.90;99.90;;;;;;5042129;28;20060;-58
2022/08/26 03:19:38;;;;;;;4.57;1.95;;;20.90;99.90;;;;;;5059479;28;20110;-58
2022/08/26 03:22:04;;;;;;;2.63;2.10;;;20.90;99.90;;;;;;5059521;28;20393;-58
2022/08/26 03:24:30;;;;;;;4.43;3.00;;;20.90;99.90;;;;;;5059370;28;20030;-57
2022/08/26 03:26:56;;;;;;;4.25;2.90;;;20.90;99.90;;;;;;5059434;28;20032;-58
2022/08/26 03:32:08;;;;;;;5.68;2.53;;;21.00;99.90;;;;;;5059332;28;20368;-59
2022/08/26 03:34:34;;;;;;;2.92;1.85;;;21.20;99.90;;;;;;5059248;28;20332;-58
2022/08/26 03:37:00;;;;;;;6.15;1.90;;;21.00;99.90;;;;;;5059286;28;20021;-59
2022/08/26 03:39:27;;;;;;;5.00;2.00;;;21.00;99.90;;;;;;5059103;28;20047;-59
2022/08/26 03:41:53;;;;;;;3.45;1.73;;;20.90;99.90;;;;;;5059658;28;20101;-59
2022/08/26 03:44:19;;;;;;;5.40;1.80;;;20.90;99.90;;;;;;5041834;28;20037;-59
2022/08/26 03:46:45;;;;;;;4.57;2.10;;;20.90;99.90;;;;;;5059070;28;20032;-59
2022/08/26 03:49:11;;;;;;;5.65;2.00;;;20.90;99.90;;;;;;5058931;28;20052;-58
2022/08/26 03:51:37;;;;;;;2.72;1.65;;;21.00;99.90;;;;;;5059074;28;20033;-59
2022/08/26 03:54:04;;;;;;;2.53;1.52;;;20.90;99.90;;;;;;5041693;28;20025;-58
2022/08/26 03:56:32;;;;;;;7.40;1.65;;;21.00;99.90;;;;;;5058913;28;20083;-59
2022/08/26 03:58:59;;;;;;;5.30;1.23;;;20.90;99.90;;;;;;5058771;28;20131;-59
2022/08/26 04:01:27;;;;;;;2.95;0.98;;;21.00;99.90;;;;;;5058704;28;20033;-59
2022/08/26 04:03:58;;;;;;;5.60;1.10;;;21.00;99.90;;;;;;5058693;28;20036;-59
2022/08/26 04:06:26;;;;;;;2.05;0.80;;;20.90;99.90;;;;;;5059291;28;20096;-60
2022/08/26 04:08:53;;;;;;;4.03;0.80;;;21.00;99.90;;;;;;5059279;28;20079;-58
2022/08/26 04:11:21;;;;;;;3.50;1.00;;;21.00;99.90;;;;;;5058309;28;20041;-58
2022/08/26 04:13:47;;;;;;;5.07;0.80;;;20.90;99.90;;;;;;5058526;28;20083;-59
2022/08/26 04:16:15;;;;;;;3.20;0.88;;;20.90;99.90;;;;;;5059270;28;20041;-59
2022/08/26 04:18:41;;;;;;;3.17;0.60;;;20.90;99.90;;;;;;5040872;28;20420;-58
2022/08/26 04:21:07;;;;;;;2.70;0.90;;;20.90;99.90;;;;;;5058555;28;20032;-58
2022/08/26 04:23:34;;;;;;;5.45;0.90;;;20.90;99.90;;;;;;5058335;28;20044;-58
2022/08/26 04:26:01;;;;;;;7.30;1.10;;;20.90;99.90;;;;;;5058901;28;20040;-59
2022/08/26 04:28:30;;;;;;;3.47;0.70;;;20.90;99.90;;;;;;5058287;28;20025;-59
2022/08/26 04:30:56;;;;;;;5.60;0.85;;;21.00;99.90;;;;;;5058815;28;20033;-58
2022/08/26 04:33:23;;;;;;;4.05;0.68;;;21.10;99.90;;;;;;5024372;28;20059;-59
2022/08/26 04:35:49;;;;;;;5.15;0.90;;;21.10;99.90;;;;;;5058107;28;20107;-59
2022/08/26 04:38:15;;;;;;;2.97;1.10;;;21.20;99.90;;;;;;5058125;28;20067;-59
2022/08/26 04:40:45;;;;;;;4.50;0.98;;;21.20;99.90;;;;;;5057886;28;20063;-58
2022/08/26 04:43:11;;;;;;;4.93;0.70;;;21.30;99.90;;;;;;5041222;28;20071;-59
2022/08/26 04:45:39;;;;;;;5.85;0.88;;;21.20;99.90;;;;;;5040493;28;20040;-58
2022/08/26 04:48:05;;;;;;;2.25;0.73;;;21.20;99.90;;;;;;5057875;28;20456;-58
2022/08/26 04:50:31;;;;;;;2.80;0.75;;;21.20;99.90;;;;;;5040392;28;20075;-59
2022/08/26 04:52:57;;;;;;;6.38;1.00;;;21.20;99.90;;;;;;5057724;28;20098;-59
2022/08/26 04:55:24;;;;;;;4.18;0.65;;;21.20;99.90;;;;;;5040207;28;20320;-59
2022/08/26 04:57:50;;;;;;;3.50;0.82;;;21.20;99.90;;;;;;5058257;28;20033;-59
2022/08/26 05:00:16;;;;;;;2.67;0.93;;;21.10;99.90;;;;;;5057428;28;20036;-59
2022/08/26 05:02:42;;;;;;;4.72;0.70;;;21.10;99.90;;;;;;5040127;28;20037;-59
2022/08/26 05:05:08;;;;;;;4.10;0.73;;;21.10;99.90;;;;;;5057453;28;20396;-59
2022/08/26 05:07:35;;;;;;;4.40;0.80;;;21.20;99.90;;;;;;5057591;28;20096;-60
2022/08/26 05:10:02;;;;;;;2.15;0.80;;;21.20;99.90;;;;;;5057384;28;20055;-59
2022/08/26 05:12:28;;;;;;;4.50;0.77;;;21.20;99.90;;;;;;5057352;28;20107;-58
2022/08/26 05:14:54;;;;;;;4.15;0.90;;;21.20;99.90;;;;;;5057351;28;20033;-59
2022/08/26 05:17:21;;;;;;;3.15;0.77;;;21.30;99.90;;;;;;5057401;28;20308;-59
2022/08/26 05:19:47;;;;;;;3.45;1.00;;;21.40;99.90;;;;;;5057281;28;20400;-59
2022/08/26 05:22:13;;;;;;;3.55;1.00;;;21.40;99.90;;;;;;5056598;28;20041;-59
2022/08/26 05:24:40;;;;;;;4.88;0.77;;;21.40;99.90;;;;;;5039825;28;20032;-59
2022/08/26 05:27:06;;;;;;;3.90;0.82;;;21.40;99.90;;;;;;5057236;28;20033;-59
2022/08/26 05:29:32;;;;;;;5.45;1.17;;;21.40;99.90;;;;;;5039122;28;20428;-59
2022/08/26 05:31:59;;;;;;;5.70;1.25;;;21.40;99.90;;;;;;5057059;28;20128;-58
2022/08/26 05:34:25;;;;;;;3.53;0.88;;;21.50;99.90;;;;;;5056939;28;20032;-58
2022/08/26 05:36:51;;;;;;;3.85;0.80;;;21.60;99.90;;;;;;5023034;28;20140;-58
2022/08/26 05:39:17;;;;;;;3.80;0.70;;;21.60;99.90;;;;;;5056751;28;20106;-58
2022/08/26 05:41:43;;;;;;;2.60;0.60;;;21.60;99.90;;;;;;5056922;28;20063;-58
2022/08/26 05:44:11;;;;;;;3.60;0.70;;;21.60;99.90;;;;;;5056933;28;20415;-58
2022/08/26 05:46:39;;;;;;;2.78;0.80;;;21.50;99.90;;;;;;5056977;28;20079;-58
2022/08/26 05:49:06;;;;;;;4.38;0.68;;;21.50;99.90;;;;;;5023636;28;20025;-58
2022/08/26 05:51:33;;;;;;;4.57;0.80;;;21.50;99.90;;;;;;5039552;28;20055;-58
2022/08/26 05:54:05;;;;;;;6.70;0.70;;;21.60;99.90;;;;;;5056908;28;20478;-58
2022/08/26 05:56:32;;;;;;;6.20;1.07;;;21.50;99.90;;;;;;5056743;28;20036;-57
2022/08/26 05:58:58;;;;;;;4.68;1.05;;;21.60;99.90;;;;;;5056727;28;20033;-58
2022/08/26 06:01:25;;;;;;;7.07;1.25;;;21.60;99.90;;;;;;5056759;28;20301;-58
2022/08/26 06:03:54;;;;;;;1.52;0.60;;;21.60;99.90;;;;;;5039299;28;20127;-59
2022/08/26 06:06:40;;;;;;;2.25;0.85;;;21.70;99.90;;;;;;5056718;28;20094;-59
2022/08/26 06:09:06;;;;;;;3.22;1.00;;;21.70;99.90;;;;;;5042360;28;20041;-59
2022/08/26 06:11:33;;;;;;;2.78;0.80;;;21.70;99.90;;;;;;5039719;28;20060;-59
2022/08/26 06:14:02;;;;;;;8.30;1.02;;;21.80;99.90;;;;;;5056531;28;20029;-59
2022/08/26 06:16:28;;;;;;;4.07;0.80;;;21.90;99.90;;;;;;5056589;28;20032;-59
2022/08/26 06:18:54;;;;;;;7.78;0.93;;;22.00;99.90;;;;;;5056409;28;20132;-58
2022/08/26 06:21:27;;;;;;;3.97;0.77;;;22.00;99.90;;;;;;5057071;28;20439;-59
2022/08/26 06:26:39;;;;;;;4.78;0.82;;;21.90;99.90;;;;;;5039020;28;20007;-59
2022/08/26 06:29:06;;;;;;;4.60;1.02;;;21.90;99.90;;;;;;5056518;28;20107;-58
2022/08/26 06:31:34;;;;;;;7.72;0.90;;;22.00;99.90;;;;;;5056291;28;20025;-58
2022/08/26 06:34:00;;;;;;;5.55;1.30;;;22.00;99.90;;;;;;5056241;28;20068;-59
2022/08/26 06:36:28;;;;;;;5.05;1.05;;;21.90;99.90;;;;;;5039035;28;20305;-59
2022/08/26 06:38:58;;;;;;;2.00;0.70;;;21.90;99.90;;;;;;5056278;28;20041;-59
2022/08/26 06:41:24;;;;;;;4.97;1.15;;;21.90;99.90;;;;;;5057714;28;20032;-59
2022/08/26 06:43:51;;;;;;;4.13;0.70;;;22.00;99.90;;;;;;5060305;28;20108;-58
2022/08/26 06:46:20;;;;;;;3.90;0.85;;;22.00;99.90;;;;;;5060727;28;20037;-59
2022/08/26 06:48:46;;;;;;;4.57;0.75;;;22.10;99.90;;;;;;5060220;28;20411;-59
2022/08/26 06:51:15;;;;;;;3.78;0.80;;;22.20;99.90;;;;;;5060747;28;20025;-59
2022/08/26 06:53:44;;;;;;;3.70;0.75;;;22.20;99.90;;;;;;5060027;28;20037;-59
2022/08/26 06:56:10;;;;;;;2.33;0.77;;;22.30;99.90;;;;;;5042541;28;20025;-59
2022/08/26 06:58:38;;;;;;;2.78;0.70;;;22.40;99.90;;;;;;5059965;28;20348;-59
2022/08/26 07:01:14;;;;;;;4.57;1.00;;;22.50;99.90;;;;;;5059973;28;20021;-59
2022/08/26 07:03:39;;;;;;;7.30;1.10;;;22.70;99.90;;;;;;5059697;28;20029;-59
2022/08/26 07:06:06;;;;;;;5.03;0.82;;;22.70;99.90;;;;;;5059765;28;20082;-59
2022/08/26 07:08:31;;;;;;;4.10;0.90;;;22.80;99.90;;;;;;5042124;28;20312;-59
2022/08/26 07:10:57;;;;;;;5.25;0.85;;;22.90;99.90;;;;;;5059633;28;20029;-59
2022/08/26 07:13:23;;;;;;;5.00;0.93;;;23.10;99.90;;;;;;5042525;28;20041;-59
2022/08/26 07:15:49;;;;;;;8.45;1.40;;;23.10;99.90;;;;;;5059864;28;20400;-59
2022/08/26 07:18:16;;;;;;;7.78;1.10;;;23.10;99.90;;;;;;5059567;28;20045;-59
2022/08/26 07:20:42;;;;;;;5.57;1.05;;;23.20;99.90;;;;;;5059412;28;20097;-57
2022/08/26 07:23:08;;;;;;;6.47;1.50;;;23.30;99.90;;;;;;5059735;28;20088;-58
2022/08/26 07:25:39;;;;;;;2.78;0.90;;;23.40;99.90;;;;;;5059464;28;20037;-58
2022/08/26 07:28:05;;;;;;;5.03;0.90;;;23.30;99.90;;;;;;5042115;28;20037;-57
2022/08/26 07:30:31;;;;;;;5.53;0.90;;;23.30;99.90;;;;;;5059361;28;20416;-59
2022/08/26 07:32:58;;;;;;;3.28;0.80;;;23.30;99.90;;;;;;5059374;28;20307;-60
2022/08/26 07:35:24;;;;;;;4.25;0.80;;;23.30;99.90;;;;;;5059419;28;20029;-59
2022/08/26 07:37:51;;;;;;;4.07;0.80;;;23.20;99.90;;;;;;5059341;28;20086;-59
2022/08/26 07:40:18;;;;;;;3.97;0.90;;;23.10;99.90;;;;;;5059178;28;20037;-59
2022/08/26 07:42:44;;;;;;;3.20;0.68;;;23.10;99.90;;;;;;5059284;28;20052;-59
2022/08/26 07:45:10;;;;;;;3.95;0.80;;;23.10;99.90;;;;;;5059135;28;20033;-60
2022/08/26 07:47:35;;;;;;;2.53;0.68;;;23.10;99.90;;;;;;5059409;28;20021;-59
2022/08/26 07:50:01;;;;;;;6.00;1.00;;;23.10;99.90;;;;;;5041748;28;20069;-59
2022/08/26 07:52:29;;;;;;;2.63;1.05;;;23.20;99.90;;;;;;5058209;28;20041;-59
2022/08/26 07:54:57;;;;;;;5.07;0.80;;;23.20;99.90;;;;;;5058885;28;20405;-59
2022/08/26 07:57:25;;;;;;;2.70;0.80;;;23.00;99.90;;;;;;5041275;28;20041;-59
2022/08/26 07:59:51;;;;;;;5.10;0.80;;;23.10;99.90;;;;;;5058698;28;20044;-58
2022/08/26 08:02:17;;;;;;;3.70;0.60;;;23.30;99.90;;;;;;5058838;28;20055;-58
2022/08/26 08:04:43;;;;;;;4.20;0.95;;;23.30;99.90;;;;;;5041345;28;20037;-58
2022/08/26 08:07:09;;;;;;;4.07;0.50;;;23.40;99.90;;;;;;5059060;28;20029;-58
2022/08/26 08:09:34;;;;;;;1.63;0.68;;;23.40;99.90;;;;;;5058917;28;20086;-58
2022/08/26 08:12:00;;;;;;;3.20;0.65;;;23.50;99.90;;;;;;5041839;28;20040;-58
2022/08/26 08:14:26;;;;;;;8.50;0.75;;;23.50;99.90;;;;;;5041197;28;20104;-58
2022/08/26 08:16:52;;;;;;;2.78;0.70;;;23.50;99.90;;;;;;5058936;28;20076;-58
2022/08/26 08:19:23;;;;;;;4.22;0.73;;;23.60;99.90;;;;;;5059549;28;20424;-58
2022/08/26 08:21:49;;;;;;;1.63;0.50;;;23.60;99.90;;;;;;5058568;28;20028;-59
2022/08/26 08:24:15;;;;;;;2.53;0.65;;;23.50;99.90;;;;;;5058337;28;20036;-58
2022/08/26 08:26:40;;;;;;;2.30;0.52;;;23.50;99.90;;;;;;5058382;28;20044;-59
2022/08/26 08:29:07;;;;;;;1.58;0.63;;;23.50;99.90;;;;;;5058685;28;20037;-59
2022/08/26 08:31:38;;;;;;;3.58;0.80;;;23.60;99.90;;;;;;5058635;28;20158;-58
2022/08/26 08:34:04;;;;;;;2.28;0.50;;;23.70;99.90;;;;;;5041615;28;20300;-59
2022/08/26 08:36:30;;;;;;;5.90;0.73;;;23.70;99.90;;;;;;5058710;28;20024;-60
2022/08/26 08:38:59;;;;;;;3.42;0.75;;;23.80;99.90;;;;;;5057924;28;20071;-59
2022/08/26 08:41:47;;;;;;;2.63;0.70;;;23.80;99.90;;;;;;5058343;28;20064;-60
2022/08/26 08:44:18;;;;;;;2.17;0.50;;;24.10;99.90;;;;;;5058026;28;20096;-60
2022/08/26 08:46:49;;;;;;;2.87;0.60;;;24.00;99.90;;;;;;5058371;28;20402;-58
2022/08/26 08:49:15;;;;;;;2.95;0.60;;;24.10;99.90;;;;;;5041166;28;20040;-59
2022/08/26 08:51:55;;;;;;;3.78;0.50;;;24.10;99.90;;;;;;5057812;28;20099;-59
2022/08/26 08:54:21;;;;;;;2.88;0.40;;;24.20;99.90;;;;;;5058183;28;20044;-58
2022/08/26 08:56:57;;;;;;;3.17;0.70;;;24.30;99.90;;;;;;5057809;28;20102;-59
2022/08/26 08:59:31;;;;;;;4.80;0.70;;;24.40;99.90;;;;;;5057611;28;20053;-59
2022/08/26 09:02:32;;;;;;;5.07;0.90;;;24.30;99.90;;;;;;5057670;28;20393;-59
2022/08/26 09:05:06;;;;;;;2.03;0.65;;;24.30;99.90;;;;;;5056645;28;20048;-59
2022/08/26 09:07:35;;;;;;;4.65;0.88;;;24.20;99.90;;;;;;5057524;28;20025;-59
2022/08/26 09:10:24;;;;;;;4.28;0.60;;;24.30;99.90;;;;;;5057535;28;20037;-59
2022/08/26 09:12:50;;;;;;;3.35;0.90;;;24.40;99.90;;;;;;5057639;28;20119;-58
2022/08/26 09:15:46;;;;;;;4.72;0.75;;;24.30;99.90;;;;;;5057532;28;20405;-59
2022/08/26 09:18:48;;;;;;;2.35;0.60;;;24.30;99.90;;;;;;5035858;28;20033;-58
2022/08/26 09:21:16;;;;;;;5.50;1.15;;;24.20;99.90;;;;;;5057399;28;20040;-59
2022/08/26 09:23:43;;;;;;;1.92;0.47;;;24.30;99.90;;;;;;5039768;28;20033;-59
2022/08/26 09:26:19;;;;;;;4.57;0.50;;;24.30;99.90;;;;;;5057479;28;20408;-60
2022/08/26 09:28:55;;;;;;;3.55;0.68;;;24.10;99.90;;;;;;5057115;28;20450;-59
2022/08/26 09:31:33;;;;;;;5.68;0.90;;;24.00;99.90;;;;;;5057239;28;20033;-59
2022/08/26 09:34:16;;;;;;;1.73;0.60;;;24.00;99.90;;;;;;5057266;28;20033;-58
2022/08/26 09:36:58;;;;;;;1.63;0.70;;;23.80;99.90;;;;;;5056997;28;20029;-61
2022/08/26 09:39:30;;;;;;;4.47;0.77;;;23.80;99.90;;;;;;5057442;28;20079;-59
2022/08/26 09:42:18;;;;;;;5.55;1.13;;;23.70;99.90;;;;;;5039608;28;20029;-60
2022/08/26 09:44:52;;;;;;;2.95;0.60;;;23.60;99.90;;;;;;5057076;28;20408;-59
2022/08/26 09:47:24;;;;;;;2.00;0.70;;;23.60;99.90;;;;;;5057348;28;20025;-59
2022/08/26 09:50:03;;;;;;;4.82;1.00;;;23.60;99.90;;;;;;5057013;28;20358;-60
2022/08/26 09:52:29;;;;;;;1.63;0.90;;;23.60;99.90;;;;;;5056980;28;20044;-59
2022/08/26 09:55:14;;;;;;;1.73;1.00;;;23.60;99.90;;;;;;5056740;28;20025;-60
2022/08/26 09:57:52;;;;;;;2.65;1.10;;;23.70;99.90;;;;;;5056798;28;20131;-60
2022/08/26 10:00:29;;;;;;;3.83;1.30;;;23.80;99.90;;;;;;5056861;28;20029;-59
2022/08/26 10:02:57;;;;;;;2.85;1.25;;;24.00;99.90;;;;;;5056690;28;20029;-59
2022/08/26 10:05:39;;;;;;;3.80;1.08;;;24.00;99.90;;;;;;5039425;28;20036;-58
2022/08/26 10:08:31;;;;;;;3.30;1.02;;;24.00;99.90;;;;;;5056525;28;20061;-59
2022/08/26 10:11:01;;;;;;;3.83;0.80;;;24.10;99.90;;;;;;5056656;28;20033;-60
2022/08/26 10:13:33;;;;;;;3.13;1.00;;;24.10;99.90;;;;;;5056528;28;20297;-60
2022/08/26 10:16:07;;;;;;;5.75;0.90;;;24.30;99.90;;;;;;5057463;28;20037;-59
2022/08/26 10:18:38;;;;;;;2.92;0.80;;;24.10;99.90;;;;;;5060736;28;20041;-59
2022/08/26 10:21:23;;;;;;;2.72;0.93;;;24.20;99.90;;;;;;5060620;28;20041;-60
2022/08/26 10:23:52;;;;;;;3.85;0.70;;;24.50;99.90;;;;;;5060714;28;20043;-59
2022/08/26 10:26:25;;;;;;;3.13;0.60;;;24.70;99.90;;;;;;5060712;28;20017;-60
2022/08/26 10:29:02;;;;;;;2.63;0.60;;;25.10;99.90;;;;;;5060667;28;20040;-60
2022/08/26 10:31:38;;;;;;;1.83;0.40;;;25.30;99.90;;;;;;5061207;28;20036;-60
2022/08/26 10:34:04;;;;;;;2.90;0.65;;;25.60;99.90;;;;;;5060617;28;20024;-60
2022/08/26 10:36:50;;;;;;;2.95;0.52;;;26.00;99.90;;;;;;5061077;28;20064;-60
2022/08/26 10:39:26;;;;;;;2.25;0.70;;;26.20;99.90;;;;;;5060357;28;20029;-60
2022/08/26 10:42:01;;;;;;;1.05;0.40;;;26.30;99.90;;;;;;5060761;28;20029;-60
2022/08/26 10:44:31;;;;;;;1.88;0.50;;;26.30;99.90;;;;;;5060268;28;20047;-61
2022/08/26 10:47:07;;;;;;;4.63;0.60;;;26.30;99.90;;;;;;5060879;28;20405;-60
2022/08/26 10:49:34;;;;;;;2.15;0.45;;;26.30;99.90;;;;;;5060158;28;20029;-62
2022/08/26 10:52:14;;;;;;;1.23;0.50;;;26.20;99.90;;;;;;5060085;28;20031;-59
2022/08/26 10:54:51;;;;;;;2.88;0.65;;;26.20;99.90;;;;;;5060508;28;20411;-59
2022/08/26 10:57:40;;;;;;;1.08;0.43;;;26.30;99.90;;;;;;5060254;28;20285;-59
2022/08/26 11:03:42;;;;;;;2.25;0.60;;;26.40;99.90;;;;;;5059832;28;20108;-59
2022/08/26 11:06:17;;;;;;;2.10;0.50;;;26.20;99.90;;;;;;5060412;28;20029;-59
2022/08/26 11:09:09;;;;;;;2.30;0.60;;;26.10;99.90;;;;;;5060057;28;20296;-58
2022/08/26 11:11:40;;;;;;;2.57;0.60;;;26.00;99.90;;;;;;5055111;28;20278;-58
2022/08/26 11:14:10;;;;;;;4.22;0.70;;;26.10;99.90;;;;;;5059688;28;20108;-58
2022/08/26 11:16:50;;;;;;;3.35;0.68;;;26.20;99.90;;;;;;5059673;28;20397;-59
2022/08/26 11:19:36;;;;;;;3.63;0.80;;;26.30;99.90;;;;;;5059441;28;20134;-59
2022/08/26 11:22:04;;;;;;;4.30;0.80;;;26.30;99.90;;;;;;5042170;28;20032;-59
2022/08/26 11:25:01;;;;;;;3.67;0.63;;;26.30;99.90;;;;;;5059408;28;20025;-59
2022/08/26 11:27:36;;;;;;;3.08;0.55;;;26.60;99.90;;;;;;5058482;28;20017;-59
2022/08/26 11:30:06;;;;;;;2.63;0.60;;;26.40;99.90;;;;;;5059324;28;20301;-59
2022/08/26 11:32:38;;;;;;;3.47;0.73;;;26.40;99.90;;;;;;5059407;28;20033;-59
2022/08/26 11:35:03;;;;;;;1.87;0.60;;;26.40;99.90;;;;;;5059360;28;20025;-59
2022/08/26 11:37:55;;;;;;;5.60;0.77;;;26.60;99.90;;;;;;5059263;28;20028;-59
2022/08/26 11:40:37;;;;;;;3.30;0.73;;;26.50;99.90;;;;;;5059194;28;20033;-59
2022/08/26 11:43:30;;;;;;;2.17;0.63;;;26.50;99.90;;;;;;5059258;28;20021;-59
2022/08/26 11:46:09;;;;;;;5.97;0.70;;;26.90;99.90;;;;;;5055454;28;20382;-60
2022/08/26 11:48:42;;;;;;;2.42;0.60;;;27.20;99.90;;;;;;5041889;28;20304;-60
2022/08/26 11:51:19;;;;;;;4.72;0.63;;;27.30;99.90;;;;;;5059093;28;20315;-59
2022/08/26 11:53:45;;;;;;;4.43;0.80;;;27.60;99.90;;;;;;5041515;28;20308;-58
2022/08/26 11:56:28;;;;;;;3.53;0.80;;;27.40;99.90;;;;;;5059190;28;20064;-59
2022/08/26 11:58:57;;;;;;;1.55;0.60;;;27.10;99.90;;;;;;5041281;28;20025;-58
2022/08/26 12:01:34;;;;;;;2.15;0.65;;;26.90;99.90;;;;;;5058782;28;20029;-58
2022/08/26 12:04:03;;;;;;;3.20;0.70;;;26.90;99.90;;;;;;5058726;28;20108;-58
2022/08/26 12:06:35;;;;;;;1.27;0.68;;;27.00;99.90;;;;;;5058955;28;20385;-58
2022/08/26 12:09:07;;;;;;;1.38;0.70;;;27.10;99.90;;;;;;5059052;28;20032;-59
2022/08/26 12:11:35;;;;;;;1.90;0.50;;;27.20;99.90;;;;;;5041405;28;20033;-59
2022/08/26 12:14:15;;;;;;;3.47;0.77;;;27.40;99.90;;;;;;5058824;28;20033;-58
2022/08/26 12:16:42;;;;;;;2.00;0.73;;;27.70;99.90;;;;;;5058684;28;20036;-58
2022/08/26 12:19:21;;;;;;;2.78;0.80;;;27.80;99.90;;;;;;5058366;28;20063;-58
2022/08/26 12:21:48;;;;;;;1.55;0.70;;;27.70;99.90;;;;;;5041297;28;20052;-58
2022/08/26 12:24:17;;;;;;;4.25;1.00;;;27.50;99.90;;;;;;5058397;28;20056;-58
2022/08/26 12:26:43;;;;;;;3.65;0.80;;;27.40;99.90;;;;;;5058261;28;20056;-59
2022/08/26 12:29:26;;;;;;;6.28;0.82;;;27.40;99.90;;;;;;5058315;28;20297;-59
2022/08/26 12:32:07;;;;;;;4.00;0.82;;;27.30;99.90;;;;;;5059004;28;20288;-59
2022/08/26 12:34:33;;;;;;;4.13;1.02;;;27.20;99.90;;;;;;5040883;28;20389;-59
2022/08/26 12:36:59;;;;;;;7.47;1.20;;;26.90;99.90;;;;;;5058181;28;20029;-59
2022/08/26 12:39:32;;;;;;;3.42;1.10;;;26.40;99.90;;;;;;5057761;28;20120;-58
2022/08/26 12:42:19;;;;;;;3.80;0.80;;;26.20;99.90;;;;;;5058359;28;20317;-58
2022/08/26 12:44:46;;;;;;;5.28;1.00;;;26.20;99.90;;;;;;5057920;28;20119;-59
2022/08/26 12:47:37;;;;;;;4.50;0.80;;;26.10;99.90;;;;;;5058003;28;20052;-58
2022/08/26 12:50:17;;;;;;;1.80;0.73;;;26.30;99.90;;;;;;5057998;28;20033;-59
2022/08/26 12:52:50;;;;;;;5.25;0.90;;;26.40;99.90;;;;;;5057905;28;20126;-59
2022/08/26 12:55:23;;;;;;;4.35;0.82;;;26.70;99.90;;;;;;5040661;28;20029;-58
2022/08/26 12:57:49;;;;;;;;;;;26.70;99.90;;;;;;5058236;28;20095;-58
2022/08/26 13:00:29;;;;;;;1.80;0.63;;;26.70;99.90;;;;;;5057725;28;19909;-58
2022/08/26 13:02:55;;;;;;;5.13;1.05;;;26.90;99.90;;;;;;5058148;28;20040;-59
2022/08/26 13:05:26;;;;;;;3.72;1.13;;;27.00;99.90;;;;;;5057676;28;20033;-58
2022/08/26 13:08:23;;;;;;;5.00;1.20;;;27.20;99.90;;;;;;5057779;28;20025;-60
2022/08/26 13:11:01;;;;;;;3.55;1.00;;;27.40;99.90;;;;;;5057789;28;20125;-59
2022/08/26 13:13:27;;;;;;;5.63;0.88;;;28.00;99.90;;;;;;5057379;28;20055;-58